sensor_id;sensor_type;location;lat;lon;timestamp;pressure;altitude;pressure_sealevel;temperature;humidity
40982;BME280;26708;50.304;19.028;2024-01-30T00:01:47;100121.47;;;2.46;60.27
40982;BME280;26708;50.304;19.028;2024-01-30T00:03:52;100129.41;;;2.49;60.28
40982;BME280;26708;50.304;19.028;2024-01-30T00:05:57;100138.94;;;2.50;60.31
40982;BME280;26708;50.304;19.028;2024-01-30T00:08:02;100086.56;;;2.22;60.42
40982;BME280;26708;50.304;19.028;2024-01-30T00:10:07;100151.31;;;2.55;60.21
40982;BME280;26708;50.304;19.028;2024-01-30T00:12:13;100152.38;;;2.59;60.29
40982;BME280;26708;50.304;19.028;2024-01-30T00:14:14;100154.03;;;2.58;60.18
40982;BME280;26708;50.304;19.028;2024-01-30T00:16:24;100129.41;;;2.49;60.07
40982;BME280;26708;50.304;19.028;2024-01-30T00:18:30;100144.50;;;2.57;60.35
40982;BME280;26708;50.304;19.028;2024-01-30T00:20:35;100138.38;;;2.55;60.13
40982;BME280;26708;50.304;19.028;2024-01-30T00:22:39;100144.38;;;2.54;60.13
40982;BME280;26708;50.304;19.028;2024-01-30T00:24:44;100120.50;;;2.44;60.30
40982;BME280;26708;50.304;19.028;2024-01-30T00:26:49;100143.41;;;2.52;60.48
40982;BME280;26708;50.304;19.028;2024-01-30T00:28:53;100140.63;;;2.49;60.35
40982;BME280;26708;50.304;19.028;2024-01-30T00:30:58;100147.56;;;2.50;60.43
40982;BME280;26708;50.304;19.028;2024-01-30T00:33:06;100135.75;;;2.39;60.41
40982;BME280;26708;50.304;19.028;2024-01-30T00:35:10;100152.53;;;2.47;60.42
40982;BME280;26708;50.304;19.028;2024-01-30T00:37:13;100148.19;;;2.46;60.49
40982;BME280;26708;50.304;19.028;2024-01-30T00:39:17;100147.22;;;2.44;60.65
40982;BME280;26708;50.304;19.028;2024-01-30T00:41:20;100132.81;;;2.33;60.70
40982;BME280;26708;50.304;19.028;2024-01-30T00:43:25;100140.91;;;2.39;60.70
40982;BME280;26708;50.304;19.028;2024-01-30T00:45:30;100145.34;;;2.42;60.67
40982;BME280;26708;50.304;19.028;2024-01-30T00:47:35;100134.69;;;2.36;60.83
40982;BME280;26708;50.304;19.028;2024-01-30T00:49:43;100146.16;;;2.41;60.80
40982;BME280;26708;50.304;19.028;2024-01-30T00:51:47;100134.59;;;2.34;60.75
40982;BME280;26708;50.304;19.028;2024-01-30T00:53:52;100145.00;;;2.36;60.80
40982;BME280;26708;50.304;19.028;2024-01-30T00:55:58;100150.44;;;2.40;60.85
40982;BME280;26708;50.304;19.028;2024-01-30T00:58:02;100114.16;;;2.23;60.52
40982;BME280;26708;50.304;19.028;2024-01-30T01:00:08;100141.06;;;2.42;60.64
40982;BME280;26708;50.304;19.028;2024-01-30T01:02:14;100138.47;;;2.42;60.62
40982;BME280;26708;50.304;19.028;2024-01-30T01:04:19;100135.03;;;2.42;60.31
40982;BME280;26708;50.304;19.028;2024-01-30T01:06:26;100112.72;;;2.28;60.60
40982;BME280;26708;50.304;19.028;2024-01-30T01:08:31;100138.56;;;2.44;60.58
40982;BME280;26708;50.304;19.028;2024-01-30T01:10:35;100128.16;;;2.42;60.41
40982;BME280;26708;50.304;19.028;2024-01-30T01:12:40;100101.44;;;2.26;60.36
40982;BME280;26708;50.304;19.028;2024-01-30T01:14:45;100113.22;;;2.37;60.03
40982;BME280;26708;50.304;19.028;2024-01-30T01:16:50;100118.63;;;2.41;60.30
40982;BME280;26708;50.304;19.028;2024-01-30T01:18:54;100115.09;;;2.39;60.29
40982;BME280;26708;50.304;19.028;2024-01-30T01:21:00;100120.16;;;2.38;60.24
40982;BME280;26708;50.304;19.028;2024-01-30T01:23:07;100092.88;;;2.27;60.11
40982;BME280;26708;50.304;19.028;2024-01-30T01:25:11;100102.88;;;2.37;60.25
40982;BME280;26708;50.304;19.028;2024-01-30T01:27:17;100096.25;;;2.26;60.23
40982;BME280;26708;50.304;19.028;2024-01-30T01:29:22;100113.13;;;2.35;60.38
40982;BME280;26708;50.304;19.028;2024-01-30T01:31:29;100107.00;;;2.33;60.03
40982;BME280;26708;50.304;19.028;2024-01-30T01:33:35;100100.63;;;2.27;60.19
40982;BME280;26708;50.304;19.028;2024-01-30T01:35:39;100069.41;;;2.08;60.07
40982;BME280;26708;50.304;19.028;2024-01-30T01:37:41;100105.94;;;2.30;60.31
40982;BME280;26708;50.304;19.028;2024-01-30T01:39:49;100097.94;;;2.25;60.24
40982;BME280;26708;50.304;19.028;2024-01-30T01:41:54;100099.56;;;2.23;60.26
40982;BME280;26708;50.304;19.028;2024-01-30T01:43:58;100112.72;;;2.28;60.20
40982;BME280;26708;50.304;19.028;2024-01-30T01:46:04;100122.25;;;2.29;60.41
40982;BME280;26708;50.304;19.028;2024-01-30T01:48:09;100099.47;;;2.22;60.26
40982;BME280;26708;50.304;19.028;2024-01-30T01:50:16;100099.41;;;2.20;60.29
40982;BME280;26708;50.304;19.028;2024-01-30T01:52:20;100102.84;;;2.21;60.28
40982;BME280;26708;50.304;19.028;2024-01-30T01:54:26;100107.31;;;2.23;60.20
40982;BME280;26708;50.304;19.028;2024-01-30T01:56:36;100105.53;;;2.22;60.31
40982;BME280;26708;50.304;19.028;2024-01-30T01:58:46;100104.56;;;2.20;60.39
40982;BME280;26708;50.304;19.028;2024-01-30T02:00:53;100102.75;;;2.19;60.40
40982;BME280;26708;50.304;19.028;2024-01-30T02:03:00;100098.97;;;2.13;60.51
40982;BME280;26708;50.304;19.028;2024-01-30T02:05:06;100102.44;;;2.13;60.60
40982;BME280;26708;50.304;19.028;2024-01-30T02:07:09;100097.91;;;2.09;60.27
40982;BME280;26708;50.304;19.028;2024-01-30T02:09:14;100105.28;;;2.18;60.58
40982;BME280;26708;50.304;19.028;2024-01-30T02:11:22;100100.75;;;2.14;60.25
40982;BME280;26708;50.304;19.028;2024-01-30T02:13:30;100104.38;;;2.17;60.35
40982;BME280;26708;50.304;19.028;2024-01-30T02:15:34;100097.44;;;2.16;60.33
40982;BME280;26708;50.304;19.028;2024-01-30T02:17:39;100103.50;;;2.17;60.44
40982;BME280;26708;50.304;19.028;2024-01-30T02:19:41;100096.63;;;2.17;60.19
40982;BME280;26708;50.304;19.028;2024-01-30T02:21:50;100079.69;;;2.06;60.21
40982;BME280;26708;50.304;19.028;2024-01-30T02:23:58;100091.38;;;2.16;59.96
40982;BME280;26708;50.304;19.028;2024-01-30T02:26:05;100087.03;;;2.15;60.21
40982;BME280;26708;50.304;19.028;2024-01-30T02:28:09;100089.59;;;2.15;60.15
40982;BME280;26708;50.304;19.028;2024-01-30T02:30:15;100082.66;;;2.14;60.11
40982;BME280;26708;50.304;19.028;2024-01-30T02:32:20;100083.56;;;2.14;60.04
40982;BME280;26708;50.304;19.028;2024-01-30T02:34:25;100092.13;;;2.13;60.01
40982;BME280;26708;50.304;19.028;2024-01-30T02:36:29;100084.91;;;2.08;59.92
40982;BME280;26708;50.304;19.028;2024-01-30T02:38:36;100098.97;;;2.13;60.14
40982;BME280;26708;50.304;19.028;2024-01-30T02:40:42;100089.53;;;2.13;60.30
40982;BME280;26708;50.304;19.028;2024-01-30T02:42:44;100088.53;;;2.11;59.89
40982;BME280;26708;50.304;19.028;2024-01-30T02:44:48;100088.22;;;2.05;60.01
40982;BME280;26708;50.304;19.028;2024-01-30T02:46:53;100088.13;;;2.04;60.19
40982;BME280;26708;50.304;19.028;2024-01-30T02:48:58;100082.53;;;1.96;60.07
40982;BME280;26708;50.304;19.028;2024-01-30T02:51:03;100087.22;;;2.03;60.23
40982;BME280;26708;50.304;19.028;2024-01-30T02:53:05;100086.38;;;2.03;60.00
40982;BME280;26708;50.304;19.028;2024-01-30T02:55:13;100090.63;;;2.02;60.03
40982;BME280;26708;50.304;19.028;2024-01-30T02:57:18;100079.94;;;1.96;60.09
40982;BME280;26708;50.304;19.028;2024-01-30T02:59:23;100090.72;;;2.04;59.80
40982;BME280;26708;50.304;19.028;2024-01-30T03:01:28;100089.81;;;2.03;59.88
40982;BME280;26708;50.304;19.028;2024-01-30T03:03:33;100092.34;;;2.02;59.83
40982;BME280;26708;50.304;19.028;2024-01-30T03:05:38;100093.19;;;2.02;59.95
40982;BME280;26708;50.304;19.028;2024-01-30T03:07:43;100088.13;;;2.04;60.14
40982;BME280;26708;50.304;19.028;2024-01-30T03:09:45;100085.56;;;2.04;59.82
40982;BME280;26708;50.304;19.028;2024-01-30T03:11:53;100065.94;;;1.91;59.71
40982;BME280;26708;50.304;19.028;2024-01-30T03:13:57;100071.91;;;1.90;59.67
40982;BME280;26708;50.304;19.028;2024-01-30T03:16:02;100045.13;;;1.74;59.55
40982;BME280;26708;50.304;19.028;2024-01-30T03:18:07;100087.53;;;1.93;59.26
40982;BME280;26708;50.304;19.028;2024-01-30T03:20:12;100075.56;;;1.79;59.43
40982;BME280;26708;50.304;19.028;2024-01-30T03:22:16;100082.59;;;1.82;59.52
40982;BME280;26708;50.304;19.028;2024-01-30T03:24:24;100079.13;;;1.81;59.66
40982;BME280;26708;50.304;19.028;2024-01-30T03:26:28;100030.78;;;1.48;59.64
40982;BME280;26708;50.304;19.028;2024-01-30T03:28:35;100035.47;;;1.55;59.78
40982;BME280;26708;50.304;19.028;2024-01-30T03:30:40;100054.16;;;1.66;59.60
40982;BME280;26708;50.304;19.028;2024-01-30T03:32:45;100080.47;;;1.75;59.64
40982;BME280;26708;50.304;19.028;2024-01-30T03:34:49;100072.63;;;1.73;59.30
40982;BME280;26708;50.304;19.028;2024-01-30T03:36:54;100062.69;;;1.65;59.58
40982;BME280;26708;50.304;19.028;2024-01-30T03:38:59;100079.59;;;1.74;59.66
40982;BME280;26708;50.304;19.028;2024-01-30T03:41:07;100075.28;;;1.75;59.52
40982;BME280;26708;50.304;19.028;2024-01-30T03:43:12;100071.75;;;1.73;59.43
40982;BME280;26708;50.304;19.028;2024-01-30T03:45:19;100067.84;;;1.65;59.88
40982;BME280;26708;50.304;19.028;2024-01-30T03:47:24;100076.81;;;1.71;59.80
40982;BME280;26708;50.304;19.028;2024-01-30T03:49:29;100078.44;;;1.69;59.76
40982;BME280;26708;50.304;19.028;2024-01-30T03:51:34;100078.44;;;1.69;59.68
40982;BME280;26708;50.304;19.028;2024-01-30T03:53:38;100062.59;;;1.63;59.80
40982;BME280;26708;50.304;19.028;2024-01-30T03:55:43;100068.00;;;1.68;59.92
40982;BME280;26708;50.304;19.028;2024-01-30T03:57:48;100060.00;;;1.63;60.11
40982;BME280;26708;50.304;19.028;2024-01-30T03:59:49;100070.59;;;1.68;59.91
40982;BME280;26708;50.304;19.028;2024-01-30T04:01:57;100064.31;;;1.63;59.98
40982;BME280;26708;50.304;19.028;2024-01-30T04:04:02;100075.84;;;1.69;60.09
40982;BME280;26708;50.304;19.028;2024-01-30T04:06:06;100052.03;;;1.59;60.02
40982;BME280;26708;50.304;19.028;2024-01-30T04:08:12;100074.16;;;1.70;59.82
40982;BME280;26708;50.304;19.028;2024-01-30T04:10:17;100075.03;;;1.70;59.73
40982;BME280;26708;50.304;19.028;2024-01-30T04:12:21;100072.38;;;1.69;59.93
40982;BME280;26708;50.304;19.028;2024-01-30T04:14:27;100073.44;;;1.72;59.89
40982;BME280;26708;50.304;19.028;2024-01-30T04:16:29;100063.66;;;1.67;59.64
40982;BME280;26708;50.304;19.028;2024-01-30T04:18:36;100067.47;;;1.73;59.63
40982;BME280;26708;50.304;19.028;2024-01-30T04:20:38;100056.81;;;1.67;59.60
40982;BME280;26708;50.304;19.028;2024-01-30T04:22:43;100066.69;;;1.74;59.64
40982;BME280;26708;50.304;19.028;2024-01-30T04:24:45;100018.94;;;1.52;59.61
40982;BME280;26708;50.304;19.028;2024-01-30T04:26:51;100065.88;;;1.75;59.59
40982;BME280;26708;50.304;19.028;2024-01-30T04:28:52;100047.38;;;1.68;59.34
40982;BME280;26708;50.304;19.028;2024-01-30T04:30:57;100042.06;;;1.65;59.45
40982;BME280;26708;50.304;19.028;2024-01-30T04:33:03;100061.44;;;1.73;59.70
40982;BME280;26708;50.304;19.028;2024-01-30T04:35:10;100041.34;;;1.67;59.46
40982;BME280;26708;50.304;19.028;2024-01-30T04:37:15;100069.41;;;1.77;59.34
40982;BME280;26708;50.304;19.028;2024-01-30T04:39:20;100033.97;;;1.59;59.27
40982;BME280;26708;50.304;19.028;2024-01-30T04:41:24;100065.16;;;1.78;59.35
40982;BME280;26708;50.304;19.028;2024-01-30T04:43:32;100068.53;;;1.77;59.17
40982;BME280;26708;50.304;19.028;2024-01-30T04:45:37;100057.88;;;1.71;59.36
40982;BME280;26708;50.304;19.028;2024-01-30T04:47:42;100067.41;;;1.72;59.69
40982;BME280;26708;50.304;19.028;2024-01-30T04:49:47;100070.22;;;1.76;59.36
40982;BME280;26708;50.304;19.028;2024-01-30T04:51:55;100068.53;;;1.77;59.22
40982;BME280;26708;50.304;19.028;2024-01-30T04:54:00;100065.16;;;1.78;59.34
40982;BME280;26708;50.304;19.028;2024-01-30T04:56:06;100062.59;;;1.78;59.43
40982;BME280;26708;50.304;19.028;2024-01-30T04:58:11;100067.75;;;1.78;59.20
40982;BME280;26708;50.304;19.028;2024-01-30T05:00:16;100047.56;;;1.71;59.03
40982;BME280;26708;50.304;19.028;2024-01-30T05:02:21;100057.94;;;1.72;59.02
40982;BME280;26708;50.304;19.028;2024-01-30T05:04:24;100054.25;;;1.67;58.90
40982;BME280;26708;50.304;19.028;2024-01-30T05:06:28;100030.41;;;1.57;59.03
40982;BME280;26708;50.304;19.028;2024-01-30T05:08:33;100073.16;;;1.82;58.54
40982;BME280;26708;50.304;19.028;2024-01-30T05:10:39;100071.44;;;1.83;58.76
40982;BME280;26708;50.304;19.028;2024-01-30T05:12:43;100054.56;;;1.73;58.75
40982;BME280;26708;50.304;19.028;2024-01-30T05:14:48;100014.03;;;1.56;58.78
40982;BME280;26708;50.304;19.028;2024-01-30T05:16:53;100075.00;;;1.85;58.69
40982;BME280;26708;50.304;19.028;2024-01-30T05:18:58;100029.06;;;1.63;58.38
40982;BME280;26708;50.304;19.028;2024-01-30T05:21:03;100070.75;;;1.85;58.22
40982;BME280;26708;50.304;19.028;2024-01-30T05:23:10;100064.63;;;1.83;58.34
40982;BME280;26708;50.304;19.028;2024-01-30T05:25:17;100065.41;;;1.82;58.51
40982;BME280;26708;50.304;19.028;2024-01-30T05:27:22;100068.00;;;1.82;58.53
40982;BME280;26708;50.304;19.028;2024-01-30T05:29:27;100053.53;;;1.70;58.63
40982;BME280;26708;50.304;19.028;2024-01-30T05:31:32;100071.38;;;1.81;58.60
40982;BME280;26708;50.304;19.028;2024-01-30T05:33:36;100070.50;;;1.81;58.71
40982;BME280;26708;50.304;19.028;2024-01-30T05:35:39;100045.44;;;1.64;58.49
40982;BME280;26708;50.304;19.028;2024-01-30T05:37:44;100079.03;;;1.80;58.43
40982;BME280;26708;50.304;19.028;2024-01-30T05:39:49;100072.09;;;1.79;58.60
40982;BME280;26708;50.304;19.028;2024-01-30T05:41:57;99995.41;;;1.31;58.33
40982;BME280;26708;50.304;19.028;2024-01-30T05:44:02;100061.78;;;1.64;58.63
40982;BME280;26708;50.304;19.028;2024-01-30T05:46:06;100075.19;;;1.73;58.52
40982;BME280;26708;50.304;19.028;2024-01-30T05:48:09;100077.88;;;1.75;58.53
40982;BME280;26708;50.304;19.028;2024-01-30T05:50:14;99917.19;;;0.71;58.38
40982;BME280;26708;50.304;19.028;2024-01-30T05:52:19;100001.28;;;1.29;58.42
40982;BME280;26708;50.304;19.028;2024-01-30T05:54:24;100066.94;;;1.79;58.35
40982;BME280;26708;50.304;19.028;2024-01-30T05:56:38;99943.91;;;1.17;58.35
40982;BME280;26708;50.304;19.028;2024-01-30T05:58:51;99901.34;;;0.94;58.51
40982;BME280;26708;50.304;19.028;2024-01-30T06:00:56;100036.78;;;1.78;58.30
40982;BME280;26708;50.304;19.028;2024-01-30T06:03:01;100071.75;;;2.03;58.14
40982;BME280;26708;50.304;19.028;2024-01-30T06:05:04;100075.56;;;2.10;57.95
40982;BME280;26708;50.304;19.028;2024-01-30T06:07:10;100076.53;;;2.12;57.85
40982;BME280;26708;50.304;19.028;2024-01-30T06:09:12;100069.19;;;2.19;57.71
40982;BME280;26708;50.304;19.028;2024-01-30T06:11:16;100043.53;;;2.06;57.56
40982;BME280;26708;50.304;19.028;2024-01-30T06:13:22;100066.13;;;2.26;57.37
40982;BME280;26708;50.304;19.028;2024-01-30T06:15:29;100078.69;;;2.35;57.21
40982;BME280;26708;50.304;19.028;2024-01-30T06:17:33;100071.09;;;2.38;57.23
40982;BME280;26708;50.304;19.028;2024-01-30T06:19:36;100077.41;;;2.43;57.04
40982;BME280;26708;50.304;19.028;2024-01-30T06:21:40;100078.44;;;2.46;56.75
40982;BME280;26708;50.304;19.028;2024-01-30T06:23:45;100076.13;;;2.51;56.69
40982;BME280;26708;50.304;19.028;2024-01-30T06:25:47;100070.06;;;2.50;56.62
40982;BME280;26708;50.304;19.028;2024-01-30T06:27:52;100043.72;;;2.41;56.57
40982;BME280;26708;50.304;19.028;2024-01-30T06:29:56;100054.47;;;2.49;56.40
40982;BME280;26708;50.304;19.028;2024-01-30T06:32:05;100068.63;;;2.55;56.34
40982;BME280;26708;50.304;19.028;2024-01-30T06:34:10;100056.81;;;2.44;56.14
40982;BME280;26708;50.304;19.028;2024-01-30T06:36:15;100074.25;;;2.48;56.18
40982;BME280;26708;50.304;19.028;2024-01-30T06:38:20;100071.16;;;2.39;56.15
40982;BME280;26708;50.304;19.028;2024-01-30T06:40:25;100074.16;;;2.47;56.47
40982;BME280;26708;50.304;19.028;2024-01-30T06:42:29;100075.06;;;2.47;56.44
40982;BME280;26708;50.304;19.028;2024-01-30T06:44:35;100052.13;;;2.37;56.48
40982;BME280;26708;50.304;19.028;2024-01-30T06:46:39;100066.97;;;2.41;56.71
40982;BME280;26708;50.304;19.028;2024-01-30T06:48:46;100075.06;;;2.47;56.49
40982;BME280;26708;50.304;19.028;2024-01-30T06:50:53;100082.00;;;2.48;56.74
40982;BME280;26708;50.304;19.028;2024-01-30T06:52:58;100083.81;;;2.49;56.68
40982;BME280;26708;50.304;19.028;2024-01-30T06:55:03;100083.00;;;2.50;56.79
40982;BME280;26708;50.304;19.028;2024-01-30T06:57:06;100080.66;;;2.55;56.79
40982;BME280;26708;50.304;19.028;2024-01-30T06:59:13;100078.41;;;2.61;56.77
40982;BME280;26708;50.304;19.028;2024-01-30T07:01:14;100076.22;;;2.68;56.67
40982;BME280;26708;50.304;19.028;2024-01-30T07:03:20;100071.34;;;2.74;56.25
40982;BME280;26708;50.304;19.028;2024-01-30T07:05:27;100053.03;;;2.70;56.01
40982;BME280;26708;50.304;19.028;2024-01-30T07:07:32;100036.34;;;2.63;56.01
40982;BME280;26708;50.304;19.028;2024-01-30T07:09:37;100077.28;;;2.88;55.93
40982;BME280;26708;50.304;19.028;2024-01-30T07:11:42;100035.69;;;2.67;55.88
40982;BME280;26708;50.304;19.028;2024-01-30T07:13:47;100066.50;;;2.96;55.84
40982;BME280;26708;50.304;19.028;2024-01-30T07:15:52;100079.91;;;3.05;55.60
40982;BME280;26708;50.304;19.028;2024-01-30T07:17:57;100085.78;;;3.19;55.51
40982;BME280;26708;50.304;19.028;2024-01-30T07:20:02;100012.78;;;2.91;55.36
40982;BME280;26708;50.304;19.028;2024-01-30T07:22:10;100090.34;;;3.40;54.77
40982;BME280;26708;50.304;19.028;2024-01-30T07:24:15;100049.31;;;3.30;54.76
40982;BME280;26708;50.304;19.028;2024-01-30T07:26:19;100074.63;;;3.53;54.51
40982;BME280;26708;50.304;19.028;2024-01-30T07:28:24;100083.13;;;3.68;54.36
40982;BME280;26708;50.304;19.028;2024-01-30T07:30:29;100079.13;;;3.75;53.85
40982;BME280;26708;50.304;19.028;2024-01-30T07:32:33;100007.41;;;3.37;53.64
40982;BME280;26708;50.304;19.028;2024-01-30T07:34:39;100058.72;;;3.81;53.57
40982;BME280;26708;50.304;19.028;2024-01-30T07:36:43;100039.50;;;3.76;53.07
40982;BME280;26708;50.304;19.028;2024-01-30T07:38:47;100066.72;;;4.02;53.14
40982;BME280;26708;50.304;19.028;2024-01-30T07:40:54;100042.88;;;3.92;52.68
40982;BME280;26708;50.304;19.028;2024-01-30T07:42:59;100079.47;;;4.17;52.84
40982;BME280;26708;50.304;19.028;2024-01-30T07:45:05;100065.72;;;4.18;52.04
40982;BME280;26708;50.304;19.028;2024-01-30T07:47:11;100066.88;;;4.24;52.19
40982;BME280;26708;50.304;19.028;2024-01-30T07:49:15;100079.50;;;4.36;51.69
40982;BME280;26708;50.304;19.028;2024-01-30T07:51:19;100072.03;;;4.42;51.55
40982;BME280;26708;50.304;19.028;2024-01-30T07:53:25;100053.75;;;4.39;51.45
40982;BME280;26708;50.304;19.028;2024-01-30T07:55:32;100037.91;;;4.33;51.28
40982;BME280;26708;50.304;19.028;2024-01-30T07:57:38;100075.59;;;4.63;51.20
40982;BME280;26708;50.304;19.028;2024-01-30T07:59:45;100059.03;;;4.59;50.93
40982;BME280;26708;50.304;19.028;2024-01-30T08:01:47;100072.78;;;4.77;51.13
40982;BME280;26708;50.304;19.028;2024-01-30T08:03:51;100037.72;;;4.66;51.03
40982;BME280;26708;50.304;19.028;2024-01-30T08:05:56;100082.31;;;4.96;50.00
40982;BME280;26708;50.304;19.028;2024-01-30T08:08:01;100060.81;;;4.98;49.98
40982;BME280;26708;50.304;19.028;2024-01-30T08:10:06;100077.72;;;5.09;49.85
40982;BME280;26708;50.304;19.028;2024-01-30T08:12:12;100075.31;;;5.14;49.58
40982;BME280;26708;50.304;19.028;2024-01-30T08:14:17;100077.16;;;5.16;49.47
40982;BME280;26708;50.304;19.028;2024-01-30T08:16:21;100067.69;;;5.17;49.34
40982;BME280;26708;50.304;19.028;2024-01-30T08:18:26;100079.47;;;5.29;49.07
40982;BME280;26708;50.304;19.028;2024-01-30T08:20:31;100079.53;;;5.31;48.92
40982;BME280;26708;50.304;19.028;2024-01-30T08:22:32;100080.59;;;5.36;49.00
40982;BME280;26708;50.304;19.028;2024-01-30T08:24:38;100075.28;;;5.33;48.50
40982;BME280;26708;50.304;19.028;2024-01-30T08:26:42;100060.59;;;5.33;48.81
40982;BME280;26708;50.304;19.028;2024-01-30T08:28:49;100061.59;;;5.37;48.34
40982;BME280;26708;50.304;19.028;2024-01-30T08:30:55;100045.66;;;5.28;48.31
40982;BME280;26708;50.304;19.028;2024-01-30T08:33:00;100073.34;;;5.48;48.06
40982;BME280;26708;50.304;19.028;2024-01-30T08:35:02;100055.75;;;5.41;47.71
40982;BME280;26708;50.304;19.028;2024-01-30T08:37:08;100063.03;;;5.49;48.07
40982;BME280;26708;50.304;19.028;2024-01-30T08:39:13;100064.63;;;5.46;47.88
40982;BME280;26708;50.304;19.028;2024-01-30T08:41:17;100075.69;;;5.62;47.91
40982;BME280;26708;50.304;19.028;2024-01-30T08:43:22;100046.56;;;5.49;47.83
40982;BME280;26708;50.304;19.028;2024-01-30T08:45:29;100077.97;;;5.75;47.63
40982;BME280;26708;50.304;19.028;2024-01-30T08:47:34;100062.13;;;5.69;47.38
40982;BME280;26708;50.304;19.028;2024-01-30T08:49:39;100077.25;;;5.79;47.33
40982;BME280;26708;50.304;19.028;2024-01-30T08:51:41;100059.72;;;5.74;47.31
40982;BME280;26708;50.304;19.028;2024-01-30T08:53:46;100041.06;;;5.62;47.15
40982;BME280;26708;50.304;19.028;2024-01-30T08:55:51;100085.47;;;5.90;47.44
40982;BME280;26708;50.304;19.028;2024-01-30T08:57:56;100084.84;;;5.95;47.08
40982;BME280;26708;50.304;19.028;2024-01-30T09:00:00;100076.16;;;5.95;46.78
40982;BME280;26708;50.304;19.028;2024-01-30T09:02:11;100078.38;;;6.06;46.84
40982;BME280;26708;50.304;19.028;2024-01-30T09:04:17;100053.88;;;6.00;46.62
40982;BME280;26708;50.304;19.028;2024-01-30T09:06:21;100081.41;;;6.17;46.47
40982;BME280;26708;50.304;19.028;2024-01-30T09:08:28;100081.56;;;6.21;46.18
40982;BME280;26708;50.304;19.028;2024-01-30T09:10:32;100059.06;;;6.22;46.26
40982;BME280;26708;50.304;19.028;2024-01-30T09:12:37;100082.94;;;6.34;46.30
40982;BME280;26708;50.304;19.028;2024-01-30T09:14:42;100084.94;;;6.41;45.98
40982;BME280;26708;50.304;19.028;2024-01-30T09:16:47;100060.41;;;6.34;45.32
40982;BME280;26708;50.304;19.028;2024-01-30T09:18:54;100075.81;;;6.52;45.38
40982;BME280;26708;50.304;19.028;2024-01-30T09:20:57;100076.81;;;6.55;45.38
40982;BME280;26708;50.304;19.028;2024-01-30T09:23:02;100074.28;;;6.57;45.19
40982;BME280;26708;50.304;19.028;2024-01-30T09:25:07;100074.47;;;6.61;44.99
40982;BME280;26708;50.304;19.028;2024-01-30T09:27:12;100078.91;;;6.64;44.86
40982;BME280;26708;50.304;19.028;2024-01-30T09:29:17;100073.69;;;6.64;44.58
40982;BME280;26708;50.304;19.028;2024-01-30T09:31:18;100066.75;;;6.64;44.57
40982;BME280;26708;50.304;19.028;2024-01-30T09:33:24;100070.44;;;6.69;44.11
40982;BME280;26708;50.304;19.028;2024-01-30T09:35:31;100064.00;;;6.60;44.31
40982;BME280;26708;50.304;19.028;2024-01-30T09:37:35;100049.81;;;6.52;44.36
40982;BME280;26708;50.304;19.028;2024-01-30T09:39:38;100011.00;;;6.34;44.15
40982;BME280;26708;50.304;19.028;2024-01-30T09:41:47;100050.13;;;6.59;44.22
40982;BME280;26708;50.304;19.028;2024-01-30T09:43:51;100065.16;;;6.68;44.38
40982;BME280;26708;50.304;19.028;2024-01-30T09:46:00;100063.47;;;6.68;44.49
40982;BME280;26708;50.304;19.028;2024-01-30T09:48:07;100042.16;;;6.55;44.33
40982;BME280;26708;50.304;19.028;2024-01-30T09:50:13;100027.19;;;6.49;44.28
40982;BME280;26708;50.304;19.028;2024-01-30T09:52:22;100065.22;;;6.69;44.46
40982;BME280;26708;50.304;19.028;2024-01-30T09:54:28;100064.28;;;6.67;44.39
40982;BME280;26708;50.304;19.028;2024-01-30T09:56:34;100063.47;;;6.68;44.63
40982;BME280;26708;50.304;19.028;2024-01-30T09:58:39;100061.84;;;6.72;44.34
40982;BME280;26708;50.304;19.028;2024-01-30T10:00:44;100054.91;;;6.72;43.98
40982;BME280;26708;50.304;19.028;2024-01-30T10:02:48;100048.91;;;6.73;43.94
40982;BME280;26708;50.304;19.028;2024-01-30T10:04:53;100055.94;;;6.76;43.45
40982;BME280;26708;50.304;19.028;2024-01-30T10:07:00;100039.97;;;6.67;43.51
40982;BME280;26708;50.304;19.028;2024-01-30T10:09:08;100053.16;;;6.71;43.25
40982;BME280;26708;50.304;19.028;2024-01-30T10:11:15;100031.19;;;6.63;43.60
40982;BME280;26708;50.304;19.028;2024-01-30T10:13:19;100034.09;;;6.72;43.64
40982;BME280;26708;50.304;19.028;2024-01-30T10:15:25;100049.97;;;6.78;43.29
40982;BME280;26708;50.304;19.028;2024-01-30T10:17:32;100050.03;;;6.80;43.35
40982;BME280;26708;50.304;19.028;2024-01-30T10:19:51;100035.44;;;6.83;43.46
40982;BME280;26708;50.304;19.028;2024-01-30T10:22:00;100016.31;;;6.83;43.41
40982;BME280;26708;50.304;19.028;2024-01-30T10:24:08;100010.19;;;6.81;43.46
40982;BME280;26708;50.304;19.028;2024-01-30T10:26:16;100025.56;;;6.98;43.41
40982;BME280;26708;50.304;19.028;2024-01-30T10:28:21;100030.97;;;7.04;42.80
40982;BME280;26708;50.304;19.028;2024-01-30T10:30:24;100024.13;;;7.06;42.62
40982;BME280;26708;50.304;19.028;2024-01-30T10:32:29;100019.69;;;7.04;42.37
40982;BME280;26708;50.304;19.028;2024-01-30T10:34:34;99967.63;;;6.79;42.66
40982;BME280;26708;50.304;19.028;2024-01-30T10:36:40;99989.06;;;6.97;42.27
40982;BME280;26708;50.304;19.028;2024-01-30T10:38:47;100012.28;;;7.16;42.33
40982;BME280;26708;50.304;19.028;2024-01-30T10:41:00;99986.78;;;7.06;42.04
40982;BME280;26708;50.304;19.028;2024-01-30T10:43:10;99997.50;;;7.15;41.88
40982;BME280;26708;50.304;19.028;2024-01-30T10:45:22;100001.53;;;7.30;42.04
40982;BME280;26708;50.304;19.028;2024-01-30T10:47:30;99974.19;;;7.18;41.87
40982;BME280;26708;50.304;19.028;2024-01-30T10:49:35;99947.66;;;7.03;41.76
40982;BME280;26708;50.304;19.028;2024-01-30T10:51:42;99996.53;;;7.36;41.39
40982;BME280;26708;50.304;19.028;2024-01-30T10:53:49;99980.75;;;7.32;41.37
40982;BME280;26708;50.304;19.028;2024-01-30T10:55:59;99996.56;;;7.38;41.14